עמוד ראשי
METAR-TAF:

METAR-TAF

שדות תעופה :

Al Wajh, ערב הסעודית

קו רוחב: 26-12N, קו אורך: 036-28E, גובה: 20מטר

תצפית מזג אוויר נוכחית

הדו"ח נערך לפני 33דקות, בשעה 16:00 UTC
רוח 9קשר מכיוון מערב/צפון-מערב
טמפרטורת 34 צלסיוס
לחות 53%
לחץ 1002 hPa
ראות 10 קילומטר או יותר
ללא עננים שבסיסם נמוך מ 5000 רגל או קומולונימבוס

METAR: OEWJ 141600Z 30009KT CAVOK 34/23 Q1002 NOSIG

זמן: 19:33 (16:33 UTC)

תחזית

הדו"ח נערך לפני 5 שעות ו 33דקות, בשעה 11:00 UTC
תחזית בתוקף מ 14 ב 12 UTC עד 15 ב 18 UTC
רוח 13קשר מכיוון מערב/צפון-מערב
ראות 10 קילומטר או יותר
ללא עננים שבסיסם נמוך מ 5000 רגל או קומולונימבוס
יעשה מ
14 ב 20 UTC עד 14 ב 22 UTC
רוח 5קשר מכיוון צפון
יעשה מ
15 ב 06 UTC עד 15 ב 08 UTC
רוח 12קשר מכיוון מערב/צפון-מערב

TAF: OEWJ 141100Z 1412/1518 30013KT CAVOK BECMG 1420/1422 36005KT BECMG 1506/1508 29012KT

תצפיות ותחזיות מזג אוויר לגבי יותר מ- 4,000 שדות תעופה ברחבי העולם. דוחות METAR ו- TAF.

התחנות הזמינות מסומנות בנקודות צהובות ואדומות על גבי המפה.

העבר את העכבר לנקודה הצבעונית על מנת לראות את שם התחנה.

לאחר מכן, לחץ כדי לראות את תוכן ואת תחזיות מזג האוויר.

כדי לשנות את המפה: לחץ על הכפתורים הירוקים עם הפלוס השחור כדי להתקרב; על הכפתור הירוק עם המקף כדי להתרחק; או בחיצים הירוקים למפות סמוכות.


METAR-TAF: